Historyczne dane pomiarowe

Dodano dane terminowe – wersja testowa.

Dane z okresu 1951-2019

Wersja bazy: 1.34 [2019-03-16, lista zmian], aktualizacja planowana na 2019-04-15

Dane meteo z obszaru Polski uzyskane na podstawie danych udostępnionych przez Instytut Meteorologii i Gospodarki Wodnej – Państwowy Instytut Badawczy.

 

Wybierz Datę:    

       

TemperaturaWilgotnośćWiatrCiśnienieOpadyŚniegCzas trwania zjawisk
 Stacja t tx tn tng RH VA  wxwx mslp ppp RRR   cm mm wxwxwxwxwxwxwx
1961-08-14 14.1 19.3 7.5- 83.8- 4.0 1.3---- 0.0------------
1961-08-13 13.8 17.6 12.5- 82.3- 6.7 2.3---- 0.0------------
1961-08-12 16.9 20.7 15.4- 93.3- 8.0 0.3---- 3.0------------
1961-08-11 17.7 23.3 17.3- 95.3- 7.7 1.3---- 16.0------------
1961-08-10 22.6 27.8 17.1- 86.3- 6.3 2.3---- 5.4------------
1961-08-09 21.5 26.9 15.2- 82.8- 5.3 0.7---- 0.7------------
1961-08-08 18.6 22.9 11.0- 78.8- 3.7 1.7---- 0.0------------
1961-08-07 17.9 23.2 17.5- 92.3- 7.3 2.0---- 0.5------------
1961-08-06 23.3 30.3 14.3- 73.0- 2.3 2.3---- 0.8------------
1961-08-05 18.7 24.4 14.8- 81.0- 4.3 3.0---- 0.0------------
1961-08-04 15.5 19.1 8.0- 74.8- 7.7 2.7---- 0.0------------
1961-08-03 14.2 18.7 12.6- 86.8- 5.7 2.3---- 0.1------------
1961-08-02 17.0 25.6 9.4- 87.3- 3.3 0.7---- 8.4------------
1961-08-01 14.4 19.9 11.4- 81.5- 4.7 5.0---- 0.3------------
1961-07-31 13.0 14.3 12.6- 97.8- 8.0 6.0---- 31.7------------
1961-07-30 14.1 16.6 9.8- 85.5- 7.3 1.7---- 11.2------------
1961-07-29 14.5 19.1 11.9- 80.8- 6.3 2.7---- 0.0------------
1961-07-28 13.8 18.4 13.1- 95.8- 8.0 3.0---- 16.8------------
1961-07-27 18.8 25.1 13.5- 78.3- 6.7 4.3---- 0.7------------
1961-07-26 17.4 23.1 10.6- 69.5- 8.0 3.7---- 0.0------------
1961-07-25 13.5 17.1 11.4- 83.0- 7.0 2.0---- 0.0------------
1961-07-24 13.3 15.1 10.9- 84.5- 7.0 3.7---- 0.0------------
1961-07-23 13.9 17.1 11.3- 88.0- 6.7 3.0---- 0.1------------
1961-07-22 14.6 18.5 13.4- 91.8- 7.3 2.3---- 7.6------------
1961-07-21 14.3 16.6 13.0- 92.3- 7.7 5.0---- 1.6------------
1961-07-20 14.8 20.5 9.0- 88.3- 6.0 1.3---- 3.3------------
1961-07-19 13.9 18.6 11.0- 92.5- 5.7 1.3---- 1.5------------
1961-07-18 14.3 19.4 10.6- 88.5- 7.0 3.0---- 2.2------------
1961-07-17 14.0 20.1 10.2- 87.3- 5.7 3.3---- 12.1------------
1961-07-16 16.0 21.5 13.0- 80.3- 7.0 3.0---- 2.4------------
1961-07-15 17.3 23.5 11.4- 78.8- 5.0 1.7---- 12.4------------
1961-07-14 14.7 19.1 12.6- 72.0- 5.3 4.0---- 0.0------------
1961-07-13 19.6 27.4 15.4- 80.0- 4.3 4.7---- 4.6------------
1961-07-12 20.7 27.1 14.0- 74.8- 4.7 0.7---- 0.0------------
1961-07-11 15.9 21.6 7.6- 77.8- 4.0 2.3---- 22.4------------
1961-07-10 13.0 18.1 9.6- 83.0- 4.7 3.3---- 0.0------------
1961-07-09 13.7 17.9 8.7- 86.5- 6.3 2.3---- 1.5------------
1961-07-08 15.5 21.3 7.2- 62.3- 3.3 2.0---- 0.0------------
1961-07-07 12.3 16.1 10.0- 78.0- 5.3 3.0---- 0.0------------
1961-07-06 11.7 15.4 7.9- 88.3- 6.7 4.7---- 2.1------------
1961-07-05 12.7 18.3 10.7- 69.5- 6.0 6.0---- 0.5------------
1961-07-04 17.3 25.2 13.6- 85.3- 5.0 1.7---- 0.2------------
1961-07-03 23.8 32.4 13.8- 58.3- 1.0 1.3---- 0.0------------
1961-07-02 23.2 29.9 12.4- 56.5- 0.0 0.7---- 0.0------------
1961-07-01 21.3 28.3 13.0- 56.8- 0.7 0.3---- 0.0------------
1961-06-30 19.8 26.1 9.4- 66.5- 1.0 0.7---- 0.0------------
1961-06-29 16.2 21.4 9.0- 69.0- 2.3 2.0---- 0.0------------
1961-06-28 13.5 20.3 12.0- 73.8- 5.0 3.7---- 0.0------------
1961-06-27 22.0 30.3 15.9- 81.8- 6.0 2.3---- 2.5------------
1961-06-26 22.8 28.1 14.5- 65.8- 3.0 1.0---- 0.0------------
1961-06-25 21.7 28.2 13.0- 64.3- 1.7 2.3---- 0.0------------
1961-06-24 18.4 25.9 12.0- 71.5- 6.0 3.7---- 0.0------------
1961-06-23 16.6 21.9 14.4- 82.0- 5.3 3.7---- 0.0------------
1961-06-22 18.2 23.5 5.5- 74.3- 2.7 1.7---- 9.2------------
1961-06-21 15.8 22.9 6.6- 70.3- 2.0 2.0---- 0.0------------
1961-06-20 14.9 19.9 8.9- 62.8- 1.3 2.7---- 0.0------------
1961-06-19 15.6 21.6 13.8- 80.5- 4.7 1.7---- 0.2------------
1961-06-18 20.5 27.4 11.2- 68.8- 0.3 2.0---- 0.0------------
1961-06-17 16.7 22.3 8.2- 74.3- 2.7 1.0---- 0.0------------
1961-06-16 13.0 18.3 6.9- 84.8- 3.7 2.3---- 0.0------------
351.8 ms

 

Źródłem pochodzenia danych jest Instytut Meteorologii i Gospodarki Wodnej – Państwowy Instytut Badawczy. Dane Instytutu Meteorologii i Gospodarki Wodnej – Państwowego Instytutu Badawczego zostały przetworzone.

Dane źródłowe można odnaleźć na stronie https://dane.imgw.pl